Time;durP1;ratioP1;P1;durP2;ratioP2;P2;SDS_P1;SDS_P2;PMS_P1;PMS_P2;Temp;Humidity;BMP_temperature;BMP_pressure;BME280_temperature;BME280_humidity;BME280_pressure;Samples;Min_cycle;Max_cycle;Signal;HPM_P1;HPM_P2
2023/07/25 00:00:00;;;;;;;0.30;0.30;;;22.10;71.20;;;;;;5055313;28;20190;-76
2023/07/25 00:02:25;;;;;;;0.30;0.30;;;22.10;71.10;;;;;;5054003;28;20056;-76
2023/07/25 00:04:51;;;;;;;0.20;0.10;;;22.20;71.20;;;;;;5060694;28;20135;-76
2023/07/25 00:07:16;;;;;;;0.08;0.08;;;22.10;71.20;;;;;;5055819;28;20051;-76
2023/07/25 00:09:42;;;;;;;0.10;0.10;;;22.10;71.10;;;;;;5051777;28;20036;-76
2023/07/25 00:12:08;;;;;;;0.20;0.20;;;22.10;71.20;;;;;;5056154;28;20128;-76
2023/07/25 00:14:34;;;;;;;0.20;0.20;;;22.10;71.20;;;;;;5053812;28;20441;-76
2023/07/25 00:17:00;;;;;;;0.10;0.10;;;22.10;71.30;;;;;;5054242;28;20067;-76
2023/07/25 00:19:26;;;;;;;0.20;0.20;;;22.10;71.30;;;;;;5051826;28;20499;-76
2023/07/25 00:21:51;;;;;;;0.20;0.20;;;22.10;71.30;;;;;;5028896;28;20052;-76
2023/07/25 00:24:17;;;;;;;0.30;0.30;;;22.10;71.10;;;;;;5033672;28;20049;-76
2023/07/25 00:26:42;;;;;;;0.20;0.20;;;22.10;71.10;;;;;;5032317;28;20132;-76
2023/07/25 00:29:08;;;;;;;0.20;0.20;;;22.10;71.00;;;;;;5054659;28;20050;-76
2023/07/25 00:31:34;;;;;;;0.20;0.10;;;22.10;71.10;;;;;;5035107;28;20124;-76
2023/07/25 00:33:59;;;;;;;0.28;0.28;;;22.10;71.10;;;;;;5028234;28;20557;-76
2023/07/25 00:36:25;;;;;;;0.25;0.25;;;22.10;71.20;;;;;;5033053;28;20037;-76
2023/07/25 00:38:50;;;;;;;0.20;0.20;;;22.10;71.20;;;;;;5033084;28;20049;-76
2023/07/25 00:41:16;;;;;;;0.45;0.45;;;22.10;71.20;;;;;;5036045;28;20398;-76
2023/07/25 00:43:41;;;;;;;0.10;0.10;;;22.10;71.20;;;;;;5036381;28;20087;-76
2023/07/25 00:46:07;;;;;;;0.20;0.20;;;22.10;71.20;;;;;;5035374;28;20056;-76
2023/07/25 00:48:32;;;;;;;0.30;0.20;;;22.10;71.20;;;;;;5028537;28;20025;-76
2023/07/25 00:50:58;;;;;;;0.10;0.10;;;22.10;71.10;;;;;;5032747;28;20038;-76
2023/07/25 00:53:24;;;;;;;0.10;0.10;;;22.10;71.10;;;;;;5037389;28;20033;-76
2023/07/25 00:55:50;;;;;;;0.10;0.10;;;22.10;71.00;;;;;;5034462;28;20041;-76
2023/07/25 00:58:16;;;;;;;0.20;0.20;;;22.10;71.00;;;;;;5033483;28;21144;-76
2023/07/25 01:00:43;;;;;;;0.20;0.20;;;22.10;71.00;;;;;;5030433;28;20041;-76
2023/07/25 01:03:09;;;;;;;0.25;0.20;;;22.10;71.00;;;;;;5036815;28;20534;-76
2023/07/25 01:05:35;;;;;;;0.10;0.10;;;22.10;71.00;;;;;;5035460;28;20173;-76
2023/07/25 01:08:01;;;;;;;0.20;0.20;;;22.10;71.10;;;;;;5051515;28;20369;-76
2023/07/25 01:10:27;;;;;;;0.20;0.20;;;22.10;71.00;;;;;;5048239;28;20041;-76
2023/07/25 01:12:52;;;;;;;0.20;0.20;;;22.10;71.00;;;;;;5029260;28;20049;-75
2023/07/25 01:15:18;;;;;;;0.10;0.10;;;22.10;71.10;;;;;;5033316;28;20044;-76
2023/07/25 01:17:43;;;;;;;0.20;0.20;;;22.10;71.10;;;;;;5053559;28;20045;-76
2023/07/25 01:20:10;;;;;;;0.13;0.13;;;22.10;71.00;;;;;;5072750;28;20037;-76
2023/07/25 01:22:36;;;;;;;0.13;0.13;;;22.10;71.10;;;;;;5066255;28;20056;-76
2023/07/25 01:25:02;;;;;;;0.10;0.10;;;22.10;71.00;;;;;;5032927;28;20411;-76
2023/07/25 01:27:28;;;;;;;0.10;0.10;;;22.10;71.00;;;;;;5032288;28;20057;-76
2023/07/25 01:29:53;;;;;;;0.10;0.10;;;22.10;71.00;;;;;;5034278;28;20061;-76
2023/07/25 01:32:19;;;;;;;0.20;0.20;;;22.10;71.00;;;;;;5033665;28;20515;-76
2023/07/25 01:34:44;;;;;;;0.20;0.20;;;22.10;70.90;;;;;;5037612;28;20446;-76
2023/07/25 01:37:10;;;;;;;0.17;0.17;;;22.00;70.90;;;;;;5033515;28;20045;-76
2023/07/25 01:39:36;;;;;;;0.13;0.13;;;22.00;71.00;;;;;;5038910;28;20061;-76
2023/07/25 01:42:01;;;;;;;0.20;0.20;;;22.10;71.10;;;;;;5055050;28;20076;-76
2023/07/25 01:44:27;;;;;;;0.10;0.10;;;22.00;70.90;;;;;;5039469;28;20041;-76
2023/07/25 01:46:54;;;;;;;0.10;0.10;;;22.10;71.00;;;;;;5040182;28;20495;-76
2023/07/25 01:49:20;;;;;;;0.30;0.30;;;22.10;70.90;;;;;;5034810;28;20120;-76
2023/07/25 01:51:45;;;;;;;0.10;0.10;;;22.10;70.90;;;;;;5032186;28;20125;-76
2023/07/25 01:54:11;;;;;;;0.45;0.10;;;22.10;70.90;;;;;;5035198;28;20040;-76
2023/07/25 01:56:37;;;;;;;0.10;0.10;;;22.10;70.90;;;;;;5037230;28;20044;-76
2023/07/25 01:59:02;;;;;;;0.20;0.20;;;22.10;70.90;;;;;;5039803;28;20044;-76
2023/07/25 02:01:28;;;;;;;0.10;0.10;;;22.00;70.80;;;;;;5036097;28;20050;-76
2023/07/25 02:03:53;;;;;;;0.28;0.20;;;22.00;70.90;;;;;;5033687;28;20033;-76
2023/07/25 02:06:19;;;;;;;0.22;0.22;;;22.00;70.90;;;;;;5032234;28;20041;-76
2023/07/25 02:08:44;;;;;;;0.17;0.17;;;22.00;70.80;;;;;;5035066;28;20057;-76
2023/07/25 02:11:10;;;;;;;0.10;0.10;;;22.00;70.90;;;;;;5035574;28;20072;-76
2023/07/25 02:13:35;;;;;;;0.10;0.10;;;22.00;70.80;;;;;;5037481;28;20038;-76
2023/07/25 02:16:01;;;;;;;0.10;0.10;;;22.00;70.90;;;;;;5034814;28;20132;-76
2023/07/25 02:18:27;;;;;;;0.20;0.20;;;22.00;70.80;;;;;;5048407;28;20520;-76
2023/07/25 02:20:52;;;;;;;0.10;0.10;;;22.00;70.80;;;;;;5032346;28;21852;-76
2023/07/25 02:23:18;;;;;;;0.15;0.15;;;22.00;70.80;;;;;;5039116;28;20056;-76
2023/07/25 02:25:45;;;;;;;0.10;0.10;;;22.10;70.70;;;;;;5040953;28;20052;-76
2023/07/25 02:28:11;;;;;;;0.13;0.10;;;22.10;70.70;;;;;;5030910;28;20468;-76
2023/07/25 02:30:37;;;;;;;0.10;0.10;;;22.10;70.70;;;;;;5031685;28;20036;-76
2023/07/25 02:33:02;;;;;;;0.10;0.10;;;22.00;70.60;;;;;;5055874;28;20045;-76
2023/07/25 02:35:28;;;;;;;0.10;0.10;;;22.00;70.60;;;;;;5055207;28;20514;-76
2023/07/25 02:37:53;;;;;;;0.10;0.10;;;22.00;71.40;;;;;;5060031;28;20436;-76
2023/07/25 02:40:19;;;;;;;0.15;0.15;;;22.00;70.60;;;;;;5056699;28;20060;-76
2023/07/25 02:42:44;;;;;;;0.10;0.10;;;22.00;70.60;;;;;;5055876;28;20036;-76
2023/07/25 02:45:10;;;;;;;0.10;0.10;;;22.00;70.60;;;;;;5057502;28;20040;-76
2023/07/25 02:47:35;;;;;;;0.20;0.20;;;22.00;70.60;;;;;;5053329;28;20608;-76
2023/07/25 02:50:01;;;;;;;0.10;0.10;;;22.00;70.60;;;;;;5061810;28;20048;-76
2023/07/25 02:52:26;;;;;;;0.28;0.28;;;22.00;70.60;;;;;;5053315;28;20115;-76
2023/07/25 02:54:52;;;;;;;0.30;0.20;;;22.00;70.50;;;;;;5054457;28;20403;-76
2023/07/25 02:57:18;;;;;;;0.20;0.20;;;22.00;70.60;;;;;;5055234;28;20068;-76
2023/07/25 02:59:43;;;;;;;0.15;0.10;;;22.00;70.60;;;;;;5053721;28;20033;-76
2023/07/25 03:02:10;;;;;;;0.10;0.10;;;22.00;70.50;;;;;;5052784;28;20053;-76
2023/07/25 03:04:35;;;;;;;0.17;0.17;;;22.00;70.60;;;;;;5054804;28;20044;-76
2023/07/25 03:07:01;;;;;;;0.10;0.10;;;22.00;70.50;;;;;;5049508;28;20047;-76
2023/07/25 03:09:27;;;;;;;0.10;0.10;;;22.00;70.50;;;;;;5052247;28;20032;-76
2023/07/25 03:11:52;;;;;;;0.10;0.10;;;22.00;70.60;;;;;;5053184;28;20087;-76
2023/07/25 03:14:19;;;;;;;0.10;0.10;;;22.00;70.60;;;;;;5056544;28;20047;-76
2023/07/25 03:16:45;;;;;;;0.10;0.10;;;22.00;71.30;;;;;;5058390;28;20044;-76
2023/07/25 03:19:10;;;;;;;0.20;0.13;;;22.00;70.50;;;;;;5040680;28;20037;-76
2023/07/25 03:21:36;;;;;;;0.10;0.10;;;22.00;70.50;;;;;;5055220;28;20511;-76
2023/07/25 03:24:01;;;;;;;0.10;0.10;;;22.00;70.50;;;;;;5050901;28;20384;-76
2023/07/25 03:26:28;;;;;;;0.00;0.00;;;22.00;70.50;;;;;;5032756;28;20029;-76
2023/07/25 03:28:53;;;;;;;0.20;0.10;;;22.00;70.50;;;;;;5074813;28;20045;-76
2023/07/25 03:31:19;;;;;;;0.20;0.20;;;21.90;70.60;;;;;;5049576;28;20047;-76
2023/07/25 03:33:44;;;;;;;0.10;0.10;;;22.00;70.60;;;;;;5047753;28;20114;-76
2023/07/25 03:36:10;;;;;;;0.10;0.10;;;21.90;71.20;;;;;;5036992;28;20033;-76
2023/07/25 03:38:35;;;;;;;0.00;0.00;;;22.00;70.50;;;;;;5054098;28;20127;-76
2023/07/25 03:41:01;;;;;;;0.10;0.10;;;21.90;70.50;;;;;;5051616;28;20523;-76
2023/07/25 03:43:26;;;;;;;0.20;0.10;;;21.90;70.40;;;;;;5051250;28;20404;-75
2023/07/25 03:45:52;;;;;;;0.10;0.10;;;22.00;70.50;;;;;;5052810;28;20098;-76
2023/07/25 03:48:18;;;;;;;0.17;0.17;;;22.00;70.40;;;;;;5054259;28;20071;-76
2023/07/25 03:50:44;;;;;;;0.15;0.10;;;22.00;70.30;;;;;;5053958;28;20427;-76
2023/07/25 03:53:09;;;;;;;0.10;0.10;;;21.90;70.30;;;;;;5039174;28;20330;-76
2023/07/25 03:55:35;;;;;;;0.13;0.10;;;21.90;70.40;;;;;;5054267;28;20449;-76
2023/07/25 03:58:00;;;;;;;1.20;0.20;;;21.90;70.40;;;;;;5056742;28;20044;-76
2023/07/25 04:00:26;;;;;;;0.15;0.10;;;21.90;70.40;;;;;;5047787;28;20036;-76
2023/07/25 04:02:52;;;;;;;0.20;0.20;;;21.90;70.40;;;;;;5054655;28;20047;-76
2023/07/25 04:05:17;;;;;;;0.10;0.10;;;21.90;70.40;;;;;;5055141;28;20167;-76
2023/07/25 04:07:43;;;;;;;0.25;0.20;;;22.00;70.50;;;;;;5056232;28;20036;-76
2023/07/25 04:10:09;;;;;;;0.10;0.10;;;21.90;70.40;;;;;;5051541;28;20448;-76
2023/07/25 04:12:34;;;;;;;0.20;0.10;;;21.90;70.40;;;;;;5051476;28;20075;-76
2023/07/25 04:15:00;;;;;;;0.10;0.10;;;21.90;70.40;;;;;;5051393;28;20513;-76
2023/07/25 04:17:25;;;;;;;0.20;0.20;;;21.90;70.40;;;;;;5055859;28;20049;-76
2023/07/25 04:19:51;;;;;;;0.10;0.10;;;21.90;70.40;;;;;;5056652;28;20025;-76
2023/07/25 04:22:16;;;;;;;0.10;0.10;;;21.90;70.30;;;;;;5056669;28;20040;-76
2023/07/25 04:24:42;;;;;;;0.05;0.05;;;21.90;70.30;;;;;;5054399;28;20036;-75
2023/07/25 04:27:07;;;;;;;0.10;0.10;;;21.90;70.30;;;;;;5056243;28;20525;-76
2023/07/25 04:29:33;;;;;;;0.20;0.20;;;21.90;70.30;;;;;;5051047;28;20411;-76
2023/07/25 04:31:58;;;;;;;0.20;0.10;;;21.90;70.30;;;;;;5057769;28;20451;-77
2023/07/25 04:34:24;;;;;;;0.10;0.10;;;21.90;70.40;;;;;;5051778;28;20033;-76
2023/07/25 04:36:49;;;;;;;0.10;0.10;;;21.90;70.30;;;;;;5054753;28;20040;-76
2023/07/25 04:39:15;;;;;;;0.20;0.20;;;21.90;70.30;;;;;;5049966;28;20037;-76
2023/07/25 04:41:41;;;;;;;0.20;0.10;;;21.90;70.30;;;;;;5051349;28;20442;-76
2023/07/25 04:44:06;;;;;;;0.10;0.10;;;21.90;70.30;;;;;;5059572;28;20044;-76
2023/07/25 04:46:32;;;;;;;0.20;0.20;;;21.90;70.30;;;;;;5052693;28;20049;-76
2023/07/25 04:48:58;;;;;;;0.10;0.10;;;21.90;70.30;;;;;;5051596;28;20067;-76
2023/07/25 04:51:23;;;;;;;0.10;0.10;;;21.90;70.30;;;;;;5039984;28;20506;-76
2023/07/25 04:53:49;;;;;;;0.20;0.10;;;21.90;70.30;;;;;;5050369;28;20029;-76
2023/07/25 04:56:14;;;;;;;0.30;0.30;;;21.90;70.30;;;;;;5058044;28;20041;-76
2023/07/25 04:58:43;;;;;;;0.10;0.10;;;21.90;70.30;;;;;;5057312;28;20494;-76
2023/07/25 05:01:09;;;;;;;0.20;0.10;;;21.90;70.30;;;;;;5048594;28;20063;-76
2023/07/25 05:03:35;;;;;;;0.20;0.20;;;21.90;70.30;;;;;;5052750;28;20056;-76
2023/07/25 05:06:00;;;;;;;0.10;0.10;;;21.90;70.20;;;;;;5039330;28;20045;-76
2023/07/25 05:08:26;;;;;;;0.10;0.10;;;21.90;70.20;;;;;;5055332;28;20051;-76
2023/07/25 05:10:52;;;;;;;0.05;0.05;;;21.90;70.20;;;;;;5056886;28;20534;-76
2023/07/25 05:13:18;;;;;;;0.20;0.20;;;21.90;70.20;;;;;;5048825;28;20102;-76
2023/07/25 05:15:43;;;;;;;0.05;0.05;;;21.90;70.20;;;;;;5051604;28;20048;-76
2023/07/25 05:18:09;;;;;;;0.10;0.05;;;21.90;70.20;;;;;;5049779;28;20501;-76
2023/07/25 05:20:34;;;;;;;0.15;0.15;;;21.90;70.20;;;;;;5054270;28;20049;-76
2023/07/25 05:23:00;;;;;;;0.20;0.10;;;21.90;70.10;;;;;;5053679;28;20048;-76
2023/07/25 05:25:25;;;;;;;0.45;0.10;;;21.90;70.10;;;;;;5054980;28;20513;-76
2023/07/25 05:27:51;;;;;;;0.10;0.10;;;21.90;70.10;;;;;;5055114;28;20445;-76
2023/07/25 05:30:17;;;;;;;0.10;0.10;;;21.90;70.10;;;;;;5055655;28;20049;-76
2023/07/25 05:32:42;;;;;;;0.17;0.10;;;21.90;70.10;;;;;;5053211;28;20041;-76
2023/07/25 05:35:08;;;;;;;0.10;0.10;;;21.90;70.20;;;;;;5056919;28;20037;-76
2023/07/25 05:37:37;;;;;;;0.20;0.20;;;21.90;70.20;;;;;;5051851;28;20064;-76
2023/07/25 05:40:03;;;;;;;0.47;0.20;;;21.90;70.10;;;;;;5052973;28;20047;-76
2023/07/25 05:42:29;;;;;;;0.63;0.22;;;21.80;70.00;;;;;;5050873;28;20076;-76
2023/07/25 05:44:55;;;;;;;0.20;0.20;;;21.80;70.80;;;;;;5040289;28;20041;-76
2023/07/25 05:47:20;;;;;;;0.10;0.10;;;21.90;70.10;;;;;;5056387;28;20495;-77
2023/07/25 05:49:46;;;;;;;0.10;0.10;;;21.90;70.10;;;;;;5054727;28;20457;-76
2023/07/25 05:52:12;;;;;;;0.40;0.15;;;21.90;70.00;;;;;;5054545;28;20391;-76
2023/07/25 05:54:38;;;;;;;0.10;0.10;;;21.90;70.00;;;;;;5054111;28;20065;-76
2023/07/25 05:57:05;;;;;;;0.20;0.20;;;21.90;70.00;;;;;;5054853;28;20037;-76
2023/07/25 05:59:30;;;;;;;0.13;0.10;;;21.90;70.00;;;;;;5055164;28;20046;-76
2023/07/25 06:01:56;;;;;;;0.20;0.20;;;21.80;69.90;;;;;;5054385;28;20049;-76
2023/07/25 06:04:22;;;;;;;0.10;0.10;;;21.90;70.00;;;;;;5054517;28;20102;-76
2023/07/25 06:06:47;;;;;;;0.10;0.10;;;21.90;70.10;;;;;;5049411;28;20052;-76
2023/07/25 06:09:13;;;;;;;0.10;0.10;;;21.80;70.00;;;;;;5050374;28;20075;-76
2023/07/25 06:11:38;;;;;;;0.10;0.10;;;21.90;70.00;;;;;;5053585;28;20080;-76
2023/07/25 06:14:04;;;;;;;0.17;0.17;;;21.80;69.90;;;;;;5054462;28;20094;-76
2023/07/25 06:16:29;;;;;;;0.25;0.20;;;21.80;69.90;;;;;;5050212;28;20049;-76
2023/07/25 06:18:55;;;;;;;0.10;0.10;;;21.80;69.90;;;;;;5052582;28;20494;-76
2023/07/25 06:21:21;;;;;;;0.13;0.10;;;21.80;69.90;;;;;;5047878;28;20095;-76
2023/07/25 06:23:46;;;;;;;0.30;0.13;;;21.90;70.00;;;;;;5057304;28;20040;-76
2023/07/25 06:26:12;;;;;;;0.10;0.10;;;21.90;69.90;;;;;;5021672;28;20041;-76
2023/07/25 06:28:37;;;;;;;0.20;0.20;;;21.90;70.00;;;;;;5058515;28;20162;-76
2023/07/25 06:31:03;;;;;;;0.20;0.20;;;21.90;70.00;;;;;;5057838;28;20037;-76
2023/07/25 06:33:28;;;;;;;0.10;0.10;;;21.80;69.80;;;;;;5054673;28;20063;-76
2023/07/25 06:35:54;;;;;;;0.28;0.10;;;21.80;69.80;;;;;;5054133;28;20067;-76
2023/07/25 06:38:19;;;;;;;0.10;0.10;;;21.80;69.80;;;;;;5056982;28;20094;-76
2023/07/25 06:40:45;;;;;;;0.20;0.20;;;21.80;69.80;;;;;;5061601;28;20413;-76
2023/07/25 06:43:11;;;;;;;0.20;0.20;;;21.80;69.80;;;;;;5055053;28;20029;-76
2023/07/25 06:45:36;;;;;;;0.10;0.10;;;21.80;69.80;;;;;;5054755;28;20102;-76
2023/07/25 06:48:02;;;;;;;0.10;0.10;;;21.80;69.80;;;;;;5058553;28;20089;-76
2023/07/25 06:50:27;;;;;;;0.15;0.10;;;21.80;70.60;;;;;;5055784;28;20061;-76
2023/07/25 06:52:53;;;;;;;0.10;0.10;;;21.80;69.80;;;;;;5060636;28;20098;-76
2023/07/25 06:55:19;;;;;;;0.17;0.10;;;21.80;69.80;;;;;;5053941;28;20049;-76
2023/07/25 06:57:45;;;;;;;0.10;0.10;;;21.80;69.80;;;;;;5049723;28;20052;-76
2023/07/25 07:00:11;;;;;;;0.10;0.10;;;21.90;69.80;;;;;;5039348;28;20471;-76
2023/07/25 07:02:37;;;;;;;0.10;0.10;;;21.80;69.80;;;;;;5053748;28;20042;-76
2023/07/25 07:05:02;;;;;;;2.17;0.20;;;21.80;69.70;;;;;;5062164;28;20045;-76
2023/07/25 07:07:28;;;;;;;0.20;0.10;;;21.90;69.70;;;;;;5057295;28;20036;-76
2023/07/25 07:09:54;;;;;;;0.17;0.10;;;21.80;70.50;;;;;;5053883;28;20045;-76
2023/07/25 07:12:19;;;;;;;0.10;0.10;;;21.80;69.70;;;;;;5052647;28;20453;-76
2023/07/25 07:14:45;;;;;;;0.20;0.15;;;21.80;69.60;;;;;;5058866;28;20060;-76
2023/07/25 07:17:10;;;;;;;0.15;0.10;;;21.80;69.60;;;;;;5053729;28;20041;-76
2023/07/25 07:19:36;;;;;;;0.43;0.22;;;21.90;69.70;;;;;;5056547;28;20072;-76
2023/07/25 07:22:01;;;;;;;0.20;0.20;;;21.80;69.60;;;;;;5038645;28;20040;-76
2023/07/25 07:24:27;;;;;;;0.20;0.20;;;21.80;69.70;;;;;;5055716;28;20529;-76
2023/07/25 07:26:53;;;;;;;0.10;0.10;;;21.80;69.60;;;;;;5051891;28;20044;-76
2023/07/25 07:29:19;;;;;;;0.10;0.10;;;21.80;69.50;;;;;;5057744;28;20406;-76
2023/07/25 07:31:44;;;;;;;0.10;0.10;;;21.80;69.50;;;;;;5058365;28;20093;-76
2023/07/25 07:34:11;;;;;;;0.20;0.20;;;21.90;69.60;;;;;;5057472;28;20040;-76
2023/07/25 07:36:37;;;;;;;0.30;0.20;;;21.90;69.60;;;;;;5051353;28;20040;-76
2023/07/25 07:39:02;;;;;;;0.17;0.10;;;21.90;69.60;;;;;;5052632;28;20022;-76
2023/07/25 07:41:28;;;;;;;0.00;0.00;;;21.90;69.50;;;;;;5055725;28;20049;-76
2023/07/25 07:43:54;;;;;;;0.10;0.10;;;21.90;69.50;;;;;;5060492;28;20040;-76
2023/07/25 07:46:19;;;;;;;0.03;0.03;;;21.90;69.50;;;;;;5056569;28;20063;-76
2023/07/25 07:48:45;;;;;;;0.20;0.20;;;21.80;69.40;;;;;;5052602;28;20083;-76
2023/07/25 07:51:11;;;;;;;0.38;0.10;;;21.90;69.40;;;;;;5050818;28;20040;-76
2023/07/25 07:53:38;;;;;;;0.10;0.10;;;21.90;69.50;;;;;;5037554;28;20037;-76
2023/07/25 07:56:10;;;;;;;0.20;0.20;;;21.90;69.50;;;;;;5059636;28;20040;-76
2023/07/25 07:58:36;;;;;;;0.10;0.10;;;21.90;69.50;;;;;;5057029;28;20070;-76
2023/07/25 08:01:01;;;;;;;0.10;0.10;;;21.80;69.40;;;;;;5054534;28;20089;-76
2023/07/25 08:03:27;;;;;;;0.13;0.13;;;21.90;69.50;;;;;;5050170;28;20110;-76
2023/07/25 08:05:57;;;;;;;0.20;0.20;;;21.80;69.40;;;;;;5055731;28;20710;-76
2023/07/25 08:08:22;;;;;;;0.30;0.30;;;21.80;69.40;;;;;;5052609;28;20056;-76
2023/07/25 08:10:48;;;;;;;0.10;0.10;;;21.90;69.50;;;;;;5054176;28;20050;-76
2023/07/25 08:13:13;;;;;;;0.10;0.10;;;21.80;69.40;;;;;;5054266;28;20064;-76
2023/07/25 08:15:39;;;;;;;0.20;0.10;;;21.80;69.40;;;;;;5052633;28;20049;-76
2023/07/25 08:18:04;;;;;;;0.10;0.10;;;21.90;69.40;;;;;;5054693;28;20041;-76
2023/07/25 08:20:30;;;;;;;0.20;0.20;;;21.80;69.30;;;;;;5056352;28;20501;-76
2023/07/25 08:22:55;;;;;;;0.10;0.10;;;21.90;69.30;;;;;;5059851;28;20092;-76
2023/07/25 08:25:21;;;;;;;0.10;0.10;;;21.90;69.20;;;;;;5058312;28;20066;-76
2023/07/25 08:27:46;;;;;;;0.10;0.10;;;21.90;69.20;;;;;;5053350;28;20521;-76
2023/07/25 08:30:12;;;;;;;0.10;0.10;;;21.90;69.20;;;;;;5054854;28;20037;-76
2023/07/25 08:32:38;;;;;;;0.10;0.10;;;21.90;69.20;;;;;;5058104;28;20118;-76
2023/07/25 08:35:04;;;;;;;0.10;0.10;;;21.90;69.30;;;;;;5055781;28;20110;-76
2023/07/25 08:37:29;;;;;;;0.15;0.10;;;21.90;69.40;;;;;;5054725;28;20055;-76
2023/07/25 08:39:55;;;;;;;0.20;0.10;;;21.90;69.40;;;;;;5057825;28;20090;-76
2023/07/25 08:42:21;;;;;;;0.17;0.15;;;21.90;69.60;;;;;;5047020;28;20118;-76
2023/07/25 08:44:47;;;;;;;0.15;0.15;;;22.00;69.60;;;;;;5019469;28;20483;-76
2023/07/25 08:47:25;;;;;;;0.28;0.28;;;22.00;69.60;;;;;;5020912;28;20040;-76
2023/07/25 08:49:52;;;;;;;0.17;0.13;;;22.00;69.70;;;;;;5054099;28;20450;-76
2023/07/25 08:52:17;;;;;;;0.20;0.20;;;22.00;69.60;;;;;;5052309;28;20101;-76
2023/07/25 08:54:43;;;;;;;0.20;0.20;;;22.00;69.70;;;;;;5054156;28;20037;-76
2023/07/25 08:57:09;;;;;;;0.10;0.10;;;22.00;69.70;;;;;;5048200;28;20063;-76
2023/07/25 08:59:34;;;;;;;0.10;0.10;;;22.00;69.80;;;;;;5038829;28;20045;-77
2023/07/25 09:02:00;;;;;;;0.30;0.30;;;22.00;69.80;;;;;;5038766;28;20117;-76
2023/07/25 09:04:27;;;;;;;0.28;0.20;;;22.00;69.80;;;;;;5036453;28;20707;-76
2023/07/25 09:06:53;;;;;;;0.10;0.10;;;22.00;70.00;;;;;;5050908;28;20067;-77
2023/07/25 09:09:18;;;;;;;0.15;0.15;;;22.00;69.80;;;;;;5038647;28;20550;-76
2023/07/25 09:11:44;;;;;;;0.20;0.20;;;22.00;69.10;;;;;;5053513;28;20128;-76
2023/07/25 09:14:11;;;;;;;0.10;0.10;;;22.00;69.80;;;;;;5058593;28;20050;-76
2023/07/25 09:16:36;;;;;;;0.00;0.00;;;22.00;69.80;;;;;;5055446;28;20178;-76
2023/07/25 09:19:02;;;;;;;0.20;0.13;;;22.00;69.70;;;;;;5044718;28;20120;-76
2023/07/25 09:21:27;;;;;;;0.13;0.10;;;22.00;69.70;;;;;;5051693;28;20044;-76
2023/07/25 09:23:59;;;;;;;0.00;0.00;;;22.00;69.70;;;;;;5055053;28;20056;-76
2023/07/25 09:26:27;;;;;;;0.10;0.10;;;22.00;69.70;;;;;;5055705;28;20036;-77
2023/07/25 09:28:56;;;;;;;0.20;0.20;;;22.00;69.70;;;;;;5056728;28;20052;-76
2023/07/25 09:31:22;;;;;;;0.10;0.10;;;22.00;70.00;;;;;;5048298;28;20044;-76
2023/07/25 09:33:49;;;;;;;0.10;0.10;;;22.00;70.10;;;;;;5053632;28;20047;-76
2023/07/25 09:36:15;;;;;;;0.15;0.13;;;22.00;69.90;;;;;;5052042;28;20053;-76
2023/07/25 09:38:50;;;;;;;0.20;0.20;;;22.00;69.80;;;;;;5054108;28;20048;-76
2023/07/25 09:41:19;;;;;;;0.20;0.20;;;22.00;69.70;;;;;;5037848;28;20555;-76
2023/07/25 09:43:44;;;;;;;0.20;0.20;;;22.00;69.80;;;;;;5057151;28;20036;-76
2023/07/25 09:46:10;;;;;;;0.20;0.10;;;22.00;69.90;;;;;;5048896;28;20075;-76
2023/07/25 09:48:36;;;;;;;0.20;0.20;;;22.10;70.00;;;;;;5053145;28;20064;-77
2023/07/25 09:51:02;;;;;;;0.20;0.17;;;22.00;69.90;;;;;;5052006;28;20119;-76
2023/07/25 09:53:29;;;;;;;0.20;0.20;;;22.10;70.00;;;;;;5038414;28;20049;-76
2023/07/25 09:55:55;;;;;;;0.17;0.17;;;22.10;69.80;;;;;;5054088;28;20532;-76
2023/07/25 09:58:20;;;;;;;0.15;0.15;;;22.10;69.80;;;;;;5039828;28;20041;-77
2023/07/25 10:00:46;;;;;;;0.10;0.10;;;22.10;69.90;;;;;;5050436;28;20045;-77
2023/07/25 10:03:12;;;;;;;0.10;0.10;;;22.10;69.80;;;;;;5054946;28;20418;-76
2023/07/25 10:05:42;;;;;;;0.40;0.20;;;22.10;69.80;;;;;;5020518;28;20046;-76
2023/07/25 10:08:08;;;;;;;0.80;0.20;;;22.10;69.80;;;;;;5037896;28;20418;-77
2023/07/25 10:10:34;;;;;;;0.25;0.25;;;22.10;68.70;;;;;;5039603;28;20132;-77
2023/07/25 10:12:59;;;;;;;0.32;0.20;;;22.10;69.30;;;;;;5038103;28;20491;-76
2023/07/25 10:15:25;;;;;;;0.32;0.32;;;22.20;68.60;;;;;;5034252;28;20033;-76
2023/07/25 10:17:50;;;;;;;0.10;0.10;;;22.20;68.40;;;;;;5048851;28;20041;-77
2023/07/25 10:20:25;;;;;;;0.30;0.10;;;22.10;68.20;;;;;;5039333;28;20430;-76
2023/07/25 10:22:51;;;;;;;0.10;0.10;;;22.20;68.10;;;;;;5042330;28;20045;-77
2023/07/25 10:25:29;;;;;;;0.20;0.20;;;22.20;68.20;;;;;;5040813;28;20041;-76
2023/07/25 10:27:58;;;;;;;0.20;0.20;;;22.20;68.60;;;;;;5053887;28;20438;-77
2023/07/25 10:30:28;;;;;;;0.20;0.20;;;22.20;68.20;;;;;;5036245;28;20040;-76
2023/07/25 10:32:56;;;;;;;0.20;0.20;;;22.20;68.10;;;;;;5036134;28;20045;-76
2023/07/25 10:35:47;;;;;;;0.10;0.10;;;22.20;68.00;;;;;;5038718;28;20060;-76
2023/07/25 10:38:14;;;;;;;0.20;0.15;;;22.20;68.00;;;;;;5040221;28;20041;-76
2023/07/25 10:41:08;;;;;;;0.40;0.30;;;22.20;68.20;;;;;;5039713;28;20041;-76
2023/07/25 10:43:46;;;;;;;0.20;0.20;;;22.20;68.10;;;;;;5049469;28;20043;-76
2023/07/25 10:46:15;;;;;;;0.17;0.17;;;22.20;68.00;;;;;;5052330;28;20421;-76
2023/07/25 10:48:48;;;;;;;0.10;0.10;;;22.20;68.00;;;;;;5057368;28;20070;-77
2023/07/25 10:51:15;;;;;;;0.20;0.20;;;22.20;68.10;;;;;;5053590;28;20040;-77
2023/07/25 10:54:10;;;;;;;0.28;0.20;;;22.20;67.90;;;;;;5056079;28;20759;-76
2023/07/25 10:56:36;;;;;;;0.10;0.10;;;22.20;67.90;;;;;;5042267;28;20482;-76
2023/07/25 10:59:11;;;;;;;0.38;0.38;;;22.20;67.90;;;;;;5038614;28;20119;-76
2023/07/25 11:01:46;;;;;;;0.28;0.20;;;22.20;67.90;;;;;;5037314;28;20049;-76
2023/07/25 11:04:31;;;;;;;0.20;0.20;;;22.20;68.10;;;;;;5034814;28;20091;-76
2023/07/25 11:07:10;;;;;;;0.10;0.10;;;22.30;67.80;;;;;;5040060;28;20486;-76
2023/07/25 11:09:40;;;;;;;0.20;0.20;;;22.20;67.80;;;;;;5032692;28;20137;-77
2023/07/25 11:12:06;;;;;;;0.25;0.22;;;22.20;68.00;;;;;;5053238;28;20038;-76
2023/07/25 11:14:32;;;;;;;0.25;0.20;;;22.20;67.90;;;;;;5051072;28;20097;-76
2023/07/25 11:16:57;;;;;;;0.22;0.17;;;22.20;67.80;;;;;;5038261;28;20507;-76
2023/07/25 11:19:26;;;;;;;0.30;0.30;;;22.20;67.60;;;;;;5034743;28;20420;-76
2023/07/25 11:21:52;;;;;;;0.10;0.10;;;22.20;67.70;;;;;;5046035;28;20041;-76
2023/07/25 11:24:19;;;;;;;0.10;0.10;;;22.20;67.80;;;;;;5036437;28;20095;-76
2023/07/25 11:26:45;;;;;;;0.13;0.13;;;22.20;67.70;;;;;;5036327;28;20042;-77
2023/07/25 11:29:12;;;;;;;0.20;0.20;;;22.20;67.60;;;;;;5037088;28;20049;-76
2023/07/25 11:31:42;;;;;;;0.17;0.10;;;22.20;67.60;;;;;;5031992;28;20402;-77
2023/07/25 11:34:14;;;;;;;0.10;0.10;;;22.30;67.70;;;;;;5019956;28;20041;-79
2023/07/25 11:36:40;;;;;;;0.17;0.10;;;22.30;67.80;;;;;;5035860;28;20539;-79
2023/07/25 11:39:07;;;;;;;0.20;0.20;;;22.30;67.80;;;;;;5033922;28;20049;-78
2023/07/25 11:41:33;;;;;;;0.30;0.30;;;22.30;67.70;;;;;;5050167;28;20128;-79
2023/07/25 11:43:59;;;;;;;0.20;0.20;;;22.30;67.70;;;;;;5038933;28;20498;-79
2023/07/25 11:46:25;;;;;;;0.30;0.30;;;22.30;67.70;;;;;;5055895;28;20044;-79
2023/07/25 11:48:51;;;;;;;0.15;0.15;;;22.30;67.60;;;;;;5048732;28;20593;-79
2023/07/25 11:51:16;;;;;;;0.10;0.10;;;22.30;67.70;;;;;;5033203;28;20068;-79
2023/07/25 11:53:42;;;;;;;0.08;0.08;;;22.30;67.80;;;;;;5052840;28;20079;-79
2023/07/25 11:56:07;;;;;;;0.32;0.32;;;22.30;67.70;;;;;;5061909;28;20103;-78
2023/07/25 11:58:34;;;;;;;0.10;0.10;;;22.20;67.70;;;;;;5067065;28;20114;-79
2023/07/25 12:00:59;;;;;;;0.20;0.17;;;22.30;67.80;;;;;;5068273;28;20588;-79
2023/07/25 12:03:25;;;;;;;0.20;0.15;;;22.30;67.70;;;;;;5026533;28;20037;-79
2023/07/25 12:05:55;;;;;;;0.13;0.13;;;22.30;67.70;;;;;;5052974;28;20044;-78
2023/07/25 12:08:39;;;;;;;0.55;0.30;;;22.20;67.60;;;;;;5071223;28;20114;-79
2023/07/25 12:11:09;;;;;;;0.13;0.13;;;22.20;67.60;;;;;;5049776;28;20043;-79
2023/07/25 12:13:48;;;;;;;0.10;0.10;;;22.20;67.50;;;;;;5050254;28;20045;-79
2023/07/25 12:16:36;;;;;;;0.10;0.05;;;22.30;67.60;;;;;;5029920;28;20515;-79
2023/07/25 12:19:08;;;;;;;0.45;0.22;;;22.30;67.50;;;;;;5029244;28;20064;-79
2023/07/25 12:21:35;;;;;;;0.40;0.20;;;22.30;67.50;;;;;;5040780;28;20045;-79
2023/07/25 12:24:05;;;;;;;0.10;0.10;;;22.30;68.20;;;;;;5035727;28;20124;-79
2023/07/25 12:26:54;;;;;;;0.28;0.20;;;22.30;67.60;;;;;;5033766;28;20046;-79
2023/07/25 12:29:21;;;;;;;0.25;0.17;;;22.30;68.20;;;;;;5033352;28;20086;-79
2023/07/25 12:31:47;;;;;;;1.42;0.10;;;22.30;67.70;;;;;;5052388;28;20045;-79
2023/07/25 12:34:18;;;;;;;0.10;0.10;;;22.30;68.10;;;;;;5027811;28;20052;-79
2023/07/25 12:36:44;;;;;;;0.30;0.20;;;22.30;68.00;;;;;;5025406;28;20094;-79
2023/07/25 12:39:09;;;;;;;0.10;0.10;;;22.30;67.90;;;;;;5030465;28;20041;-78
2023/07/25 12:41:35;;;;;;;0.20;0.20;;;22.30;67.80;;;;;;5033055;28;20176;-79
2023/07/25 12:44:00;;;;;;;0.20;0.20;;;22.30;67.80;;;;;;5037120;28;20048;-79